sensor_id;sensor_type;location;lat;lon;timestamp;temperature;humidity
65404;DHT22;52014;52.088;5.096;2023-04-24T00:01:40;11.70;99.90
65404;DHT22;52014;52.088;5.096;2023-04-24T00:04:05;11.70;99.90
65404;DHT22;52014;52.088;5.096;2023-04-24T00:06:32;11.70;99.90
65404;DHT22;52014;52.088;5.096;2023-04-24T00:09:02;11.70;99.90
65404;DHT22;52014;52.088;5.096;2023-04-24T00:11:28;11.70;99.90
65404;DHT22;52014;52.088;5.096;2023-04-24T00:13:54;11.60;99.90
65404;DHT22;52014;52.088;5.096;2023-04-24T00:16:19;11.60;99.90
65404;DHT22;52014;52.088;5.096;2023-04-24T00:18:45;11.70;99.90
65404;DHT22;52014;52.088;5.096;2023-04-24T00:21:10;11.70;99.90
65404;DHT22;52014;52.088;5.096;2023-04-24T00:23:36;11.70;99.90
65404;DHT22;52014;52.088;5.096;2023-04-24T00:26:01;11.70;99.90
65404;DHT22;52014;52.088;5.096;2023-04-24T00:28:27;11.60;99.90
65404;DHT22;52014;52.088;5.096;2023-04-24T00:30:53;11.70;99.90
65404;DHT22;52014;52.088;5.096;2023-04-24T00:33:19;11.70;99.90
65404;DHT22;52014;52.088;5.096;2023-04-24T00:35:44;11.70;99.90
65404;DHT22;52014;52.088;5.096;2023-04-24T00:38:09;11.50;99.90
65404;DHT22;52014;52.088;5.096;2023-04-24T00:40:35;11.60;99.90
65404;DHT22;52014;52.088;5.096;2023-04-24T00:43:00;11.70;99.90
65404;DHT22;52014;52.088;5.096;2023-04-24T00:45:26;11.70;99.90
65404;DHT22;52014;52.088;5.096;2023-04-24T00:47:52;11.60;99.90
65404;DHT22;52014;52.088;5.096;2023-04-24T00:50:17;11.70;99.90
65404;DHT22;52014;52.088;5.096;2023-04-24T00:52:43;11.70;99.90
65404;DHT22;52014;52.088;5.096;2023-04-24T00:55:08;11.70;99.90
65404;DHT22;52014;52.088;5.096;2023-04-24T00:57:34;11.70;99.90
65404;DHT22;52014;52.088;5.096;2023-04-24T00:59:59;11.70;99.90
65404;DHT22;52014;52.088;5.096;2023-04-24T01:02:25;11.70;99.90
65404;DHT22;52014;52.088;5.096;2023-04-24T01:04:50;11.70;99.90
65404;DHT22;52014;52.088;5.096;2023-04-24T01:07:17;11.70;99.90
65404;DHT22;52014;52.088;5.096;2023-04-24T01:09:43;11.80;99.90
65404;DHT22;52014;52.088;5.096;2023-04-24T01:12:12;11.80;99.90
65404;DHT22;52014;52.088;5.096;2023-04-24T01:14:37;11.60;99.90
65404;DHT22;52014;52.088;5.096;2023-04-24T01:17:03;11.80;99.90
65404;DHT22;52014;52.088;5.096;2023-04-24T01:19:29;11.70;99.90
65404;DHT22;52014;52.088;5.096;2023-04-24T01:21:54;11.70;99.90
65404;DHT22;52014;52.088;5.096;2023-04-24T01:24:23;11.70;99.90
65404;DHT22;52014;52.088;5.096;2023-04-24T01:26:48;11.70;99.90
65404;DHT22;52014;52.088;5.096;2023-04-24T01:29:14;11.70;99.90
65404;DHT22;52014;52.088;5.096;2023-04-24T01:31:39;11.80;99.90
65404;DHT22;52014;52.088;5.096;2023-04-24T01:34:05;11.80;99.90
65404;DHT22;52014;52.088;5.096;2023-04-24T01:36:31;11.80;99.90
65404;DHT22;52014;52.088;5.096;2023-04-24T01:38:57;11.80;99.90
65404;DHT22;52014;52.088;5.096;2023-04-24T01:41:23;11.70;99.90
65404;DHT22;52014;52.088;5.096;2023-04-24T01:43:49;11.80;99.90
65404;DHT22;52014;52.088;5.096;2023-04-24T01:46:14;11.80;99.90
65404;DHT22;52014;52.088;5.096;2023-04-24T01:48:40;11.80;99.90
65404;DHT22;52014;52.088;5.096;2023-04-24T01:51:06;11.80;99.90
65404;DHT22;52014;52.088;5.096;2023-04-24T01:53:31;11.70;99.90
65404;DHT22;52014;52.088;5.096;2023-04-24T01:55:57;11.70;99.90
65404;DHT22;52014;52.088;5.096;2023-04-24T01:58:22;11.70;99.90
65404;DHT22;52014;52.088;5.096;2023-04-24T02:00:48;11.70;99.90
65404;DHT22;52014;52.088;5.096;2023-04-24T02:03:13;11.70;99.90
65404;DHT22;52014;52.088;5.096;2023-04-24T02:05:39;11.70;99.90
65404;DHT22;52014;52.088;5.096;2023-04-24T02:08:04;11.70;99.90
65404;DHT22;52014;52.088;5.096;2023-04-24T02:10:30;11.70;99.90
65404;DHT22;52014;52.088;5.096;2023-04-24T02:12:55;11.70;99.90
65404;DHT22;52014;52.088;5.096;2023-04-24T02:15:21;11.70;99.90
65404;DHT22;52014;52.088;5.096;2023-04-24T02:17:46;11.70;99.90
65404;DHT22;52014;52.088;5.096;2023-04-24T02:20:12;11.70;99.90
65404;DHT22;52014;52.088;5.096;2023-04-24T02:22:37;11.70;99.90
65404;DHT22;52014;52.088;5.096;2023-04-24T02:25:03;11.70;99.90
65404;DHT22;52014;52.088;5.096;2023-04-24T02:27:28;11.70;99.90
65404;DHT22;52014;52.088;5.096;2023-04-24T02:29:54;11.70;99.90
65404;DHT22;52014;52.088;5.096;2023-04-24T02:32:20;11.70;99.90
65404;DHT22;52014;52.088;5.096;2023-04-24T02:34:45;11.60;99.90
65404;DHT22;52014;52.088;5.096;2023-04-24T02:37:11;11.60;99.90
65404;DHT22;52014;52.088;5.096;2023-04-24T02:39:36;11.70;99.90
65404;DHT22;52014;52.088;5.096;2023-04-24T02:42:02;11.60;99.90
65404;DHT22;52014;52.088;5.096;2023-04-24T02:44:28;11.60;99.90
65404;DHT22;52014;52.088;5.096;2023-04-24T02:46:53;11.60;99.90
65404;DHT22;52014;52.088;5.096;2023-04-24T02:49:18;11.70;99.90
65404;DHT22;52014;52.088;5.096;2023-04-24T02:51:44;11.60;99.90
65404;DHT22;52014;52.088;5.096;2023-04-24T02:54:09;11.70;99.90
65404;DHT22;52014;52.088;5.096;2023-04-24T02:56:36;11.60;99.90
65404;DHT22;52014;52.088;5.096;2023-04-24T02:59:01;11.60;99.90
65404;DHT22;52014;52.088;5.096;2023-04-24T03:01:27;11.60;99.90
65404;DHT22;52014;52.088;5.096;2023-04-24T03:03:52;11.60;99.90
65404;DHT22;52014;52.088;5.096;2023-04-24T03:06:18;11.60;99.90
65404;DHT22;52014;52.088;5.096;2023-04-24T03:08:43;11.60;99.90
65404;DHT22;52014;52.088;5.096;2023-04-24T03:11:08;11.60;99.90
65404;DHT22;52014;52.088;5.096;2023-04-24T03:13:34;11.50;99.90
65404;DHT22;52014;52.088;5.096;2023-04-24T03:16:00;11.50;99.90
65404;DHT22;52014;52.088;5.096;2023-04-24T03:18:25;11.50;99.90
65404;DHT22;52014;52.088;5.096;2023-04-24T03:20:51;11.50;99.90
65404;DHT22;52014;52.088;5.096;2023-04-24T03:23:16;11.60;99.90
65404;DHT22;52014;52.088;5.096;2023-04-24T03:25:42;11.50;99.90
65404;DHT22;52014;52.088;5.096;2023-04-24T03:28:08;11.50;99.90
65404;DHT22;52014;52.088;5.096;2023-04-24T03:30:33;11.50;99.90
65404;DHT22;52014;52.088;5.096;2023-04-24T03:33:00;11.50;99.90
65404;DHT22;52014;52.088;5.096;2023-04-24T03:35:25;11.40;99.90
65404;DHT22;52014;52.088;5.096;2023-04-24T03:37:51;11.50;99.90
65404;DHT22;52014;52.088;5.096;2023-04-24T03:40:16;11.50;99.90
65404;DHT22;52014;52.088;5.096;2023-04-24T03:42:42;11.40;99.90
65404;DHT22;52014;52.088;5.096;2023-04-24T03:45:07;11.40;99.90
65404;DHT22;52014;52.088;5.096;2023-04-24T03:47:33;11.40;99.90
65404;DHT22;52014;52.088;5.096;2023-04-24T03:49:59;11.50;99.90
65404;DHT22;52014;52.088;5.096;2023-04-24T03:52:24;11.40;99.90
65404;DHT22;52014;52.088;5.096;2023-04-24T03:54:50;11.40;99.90
65404;DHT22;52014;52.088;5.096;2023-04-24T03:57:15;11.40;99.90
65404;DHT22;52014;52.088;5.096;2023-04-24T03:59:40;11.50;99.90
65404;DHT22;52014;52.088;5.096;2023-04-24T04:02:06;11.40;99.90
65404;DHT22;52014;52.088;5.096;2023-04-24T04:04:31;11.40;99.90
65404;DHT22;52014;52.088;5.096;2023-04-24T04:06:57;11.40;99.90
65404;DHT22;52014;52.088;5.096;2023-04-24T04:09:26;11.40;99.90
65404;DHT22;52014;52.088;5.096;2023-04-24T04:11:52;11.30;99.90
65404;DHT22;52014;52.088;5.096;2023-04-24T04:14:17;11.40;99.90
65404;DHT22;52014;52.088;5.096;2023-04-24T04:16:42;11.40;99.90
65404;DHT22;52014;52.088;5.096;2023-04-24T04:19:08;11.40;99.90
65404;DHT22;52014;52.088;5.096;2023-04-24T04:21:33;11.50;99.90
65404;DHT22;52014;52.088;5.096;2023-04-24T04:23:59;11.40;99.90
65404;DHT22;52014;52.088;5.096;2023-04-24T04:26:24;11.50;99.90
65404;DHT22;52014;52.088;5.096;2023-04-24T04:28:51;11.40;99.90
65404;DHT22;52014;52.088;5.096;2023-04-24T04:31:16;11.40;99.90
65404;DHT22;52014;52.088;5.096;2023-04-24T04:33:42;11.40;99.90
65404;DHT22;52014;52.088;5.096;2023-04-24T04:36:07;11.40;99.90
65404;DHT22;52014;52.088;5.096;2023-04-24T04:38:33;11.50;99.90
65404;DHT22;52014;52.088;5.096;2023-04-24T04:41:00;11.40;99.90
65404;DHT22;52014;52.088;5.096;2023-04-24T04:43:25;11.40;99.90
65404;DHT22;52014;52.088;5.096;2023-04-24T04:45:51;11.40;99.90
65404;DHT22;52014;52.088;5.096;2023-04-24T04:48:17;11.40;99.90
65404;DHT22;52014;52.088;5.096;2023-04-24T04:50:44;11.40;99.90
65404;DHT22;52014;52.088;5.096;2023-04-24T04:53:09;11.40;99.90
65404;DHT22;52014;52.088;5.096;2023-04-24T04:55:35;11.40;99.90
65404;DHT22;52014;52.088;5.096;2023-04-24T04:58:01;11.40;99.90
65404;DHT22;52014;52.088;5.096;2023-04-24T05:00:27;11.30;99.90
65404;DHT22;52014;52.088;5.096;2023-04-24T05:02:54;11.30;99.90
65404;DHT22;52014;52.088;5.096;2023-04-24T05:05:19;11.30;99.90
65404;DHT22;52014;52.088;5.096;2023-04-24T05:07:45;11.20;99.90
65404;DHT22;52014;52.088;5.096;2023-04-24T05:10:10;11.20;99.90
65404;DHT22;52014;52.088;5.096;2023-04-24T05:12:36;11.10;99.90
65404;DHT22;52014;52.088;5.096;2023-04-24T05:15:01;11.10;99.90
65404;DHT22;52014;52.088;5.096;2023-04-24T05:17:28;11.10;99.90
65404;DHT22;52014;52.088;5.096;2023-04-24T05:19:53;11.10;99.90
65404;DHT22;52014;52.088;5.096;2023-04-24T05:22:19;11.10;99.90
65404;DHT22;52014;52.088;5.096;2023-04-24T05:24:46;11.00;99.90
65404;DHT22;52014;52.088;5.096;2023-04-24T05:27:12;11.00;99.90
65404;DHT22;52014;52.088;5.096;2023-04-24T05:29:37;11.00;99.90
65404;DHT22;52014;52.088;5.096;2023-04-24T05:32:03;11.00;99.90
65404;DHT22;52014;52.088;5.096;2023-04-24T05:34:28;11.00;99.90
65404;DHT22;52014;52.088;5.096;2023-04-24T05:36:53;11.00;99.90
65404;DHT22;52014;52.088;5.096;2023-04-24T05:39:19;11.00;99.90
65404;DHT22;52014;52.088;5.096;2023-04-24T05:41:45;11.00;99.90
65404;DHT22;52014;52.088;5.096;2023-04-24T05:44:10;11.00;99.90
65404;DHT22;52014;52.088;5.096;2023-04-24T05:46:35;11.00;99.90
65404;DHT22;52014;52.088;5.096;2023-04-24T05:49:01;11.00;99.90
65404;DHT22;52014;52.088;5.096;2023-04-24T05:51:27;11.00;99.90
65404;DHT22;52014;52.088;5.096;2023-04-24T05:53:53;11.10;99.90
65404;DHT22;52014;52.088;5.096;2023-04-24T05:56:18;11.10;99.90
65404;DHT22;52014;52.088;5.096;2023-04-24T05:58:45;11.10;99.90
65404;DHT22;52014;52.088;5.096;2023-04-24T06:01:10;11.10;99.90
65404;DHT22;52014;52.088;5.096;2023-04-24T06:03:36;11.10;99.90
65404;DHT22;52014;52.088;5.096;2023-04-24T06:06:01;11.00;99.90
65404;DHT22;52014;52.088;5.096;2023-04-24T06:08:27;11.10;99.90
65404;DHT22;52014;52.088;5.096;2023-04-24T06:10:52;11.00;99.90
65404;DHT22;52014;52.088;5.096;2023-04-24T06:13:18;11.10;99.90
65404;DHT22;52014;52.088;5.096;2023-04-24T06:15:43;11.00;99.90
65404;DHT22;52014;52.088;5.096;2023-04-24T06:18:09;11.00;99.90
65404;DHT22;52014;52.088;5.096;2023-04-24T06:20:35;11.00;99.90
65404;DHT22;52014;52.088;5.096;2023-04-24T06:23:01;10.90;99.90
65404;DHT22;52014;52.088;5.096;2023-04-24T06:25:26;10.80;99.90
65404;DHT22;52014;52.088;5.096;2023-04-24T06:27:52;10.80;99.90
65404;DHT22;52014;52.088;5.096;2023-04-24T06:30:18;10.80;99.90
65404;DHT22;52014;52.088;5.096;2023-04-24T06:32:43;10.90;99.90
65404;DHT22;52014;52.088;5.096;2023-04-24T06:35:08;10.70;99.90
65404;DHT22;52014;52.088;5.096;2023-04-24T06:37:35;10.70;99.90
65404;DHT22;52014;52.088;5.096;2023-04-24T06:40:00;10.80;99.90
65404;DHT22;52014;52.088;5.096;2023-04-24T06:42:26;10.90;99.90
65404;DHT22;52014;52.088;5.096;2023-04-24T06:44:51;11.00;99.90
65404;DHT22;52014;52.088;5.096;2023-04-24T06:47:17;11.00;99.90
65404;DHT22;52014;52.088;5.096;2023-04-24T06:49:42;11.00;99.90
65404;DHT22;52014;52.088;5.096;2023-04-24T06:52:07;11.20;99.90
65404;DHT22;52014;52.088;5.096;2023-04-24T06:54:33;11.20;99.90
65404;DHT22;52014;52.088;5.096;2023-04-24T06:56:59;11.20;99.90
65404;DHT22;52014;52.088;5.096;2023-04-24T06:59:26;11.30;99.90
65404;DHT22;52014;52.088;5.096;2023-04-24T07:01:51;11.20;99.90
65404;DHT22;52014;52.088;5.096;2023-04-24T07:04:17;11.30;99.90
65404;DHT22;52014;52.088;5.096;2023-04-24T07:06:43;11.20;99.90
65404;DHT22;52014;52.088;5.096;2023-04-24T07:09:09;11.20;99.90
65404;DHT22;52014;52.088;5.096;2023-04-24T07:11:34;11.20;99.90
65404;DHT22;52014;52.088;5.096;2023-04-24T07:14:02;11.30;99.90
65404;DHT22;52014;52.088;5.096;2023-04-24T07:16:27;11.20;99.90
65404;DHT22;52014;52.088;5.096;2023-04-24T07:18:53;11.30;99.90
65404;DHT22;52014;52.088;5.096;2023-04-24T07:21:18;11.20;99.90
65404;DHT22;52014;52.088;5.096;2023-04-24T07:23:44;11.10;99.90
65404;DHT22;52014;52.088;5.096;2023-04-24T07:26:09;11.20;99.90
65404;DHT22;52014;52.088;5.096;2023-04-24T07:28:35;11.10;99.90
65404;DHT22;52014;52.088;5.096;2023-04-24T07:31:00;11.10;99.90
65404;DHT22;52014;52.088;5.096;2023-04-24T07:33:26;11.10;99.90
65404;DHT22;52014;52.088;5.096;2023-04-24T07:35:52;11.10;99.90
65404;DHT22;52014;52.088;5.096;2023-04-24T07:38:17;11.10;99.90
65404;DHT22;52014;52.088;5.096;2023-04-24T07:40:46;11.10;99.90
65404;DHT22;52014;52.088;5.096;2023-04-24T07:43:11;11.20;99.90
65404;DHT22;52014;52.088;5.096;2023-04-24T07:45:37;11.10;99.90
65404;DHT22;52014;52.088;5.096;2023-04-24T07:48:02;11.10;99.90
65404;DHT22;52014;52.088;5.096;2023-04-24T07:50:28;11.10;99.90
65404;DHT22;52014;52.088;5.096;2023-04-24T07:52:53;11.10;99.90
65404;DHT22;52014;52.088;5.096;2023-04-24T07:55:19;11.00;99.90
65404;DHT22;52014;52.088;5.096;2023-04-24T07:57:44;11.00;99.90
65404;DHT22;52014;52.088;5.096;2023-04-24T08:00:10;11.00;99.90
65404;DHT22;52014;52.088;5.096;2023-04-24T08:02:36;11.00;99.90
65404;DHT22;52014;52.088;5.096;2023-04-24T08:05:01;10.80;99.90
65404;DHT22;52014;52.088;5.096;2023-04-24T08:07:28;10.80;99.90
65404;DHT22;52014;52.088;5.096;2023-04-24T08:09:54;10.80;99.90
65404;DHT22;52014;52.088;5.096;2023-04-24T08:12:19;10.80;99.90
65404;DHT22;52014;52.088;5.096;2023-04-24T08:14:45;10.90;99.90
65404;DHT22;52014;52.088;5.096;2023-04-24T08:17:10;10.90;99.90
65404;DHT22;52014;52.088;5.096;2023-04-24T08:19:36;10.90;99.90
65404;DHT22;52014;52.088;5.096;2023-04-24T08:22:01;10.80;99.90
65404;DHT22;52014;52.088;5.096;2023-04-24T08:24:27;10.80;99.90
65404;DHT22;52014;52.088;5.096;2023-04-24T08:26:53;10.70;99.90
65404;DHT22;52014;52.088;5.096;2023-04-24T08:29:19;10.80;99.90
65404;DHT22;52014;52.088;5.096;2023-04-24T08:31:44;10.70;99.90
65404;DHT22;52014;52.088;5.096;2023-04-24T08:34:10;10.70;99.90
65404;DHT22;52014;52.088;5.096;2023-04-24T08:36:36;10.60;99.90
65404;DHT22;52014;52.088;5.096;2023-04-24T08:39:01;10.60;99.90
65404;DHT22;52014;52.088;5.096;2023-04-24T08:41:27;10.40;99.90
65404;DHT22;52014;52.088;5.096;2023-04-24T08:43:52;10.50;99.90
65404;DHT22;52014;52.088;5.096;2023-04-24T08:46:18;10.60;99.90
65404;DHT22;52014;52.088;5.096;2023-04-24T08:48:44;10.70;99.90
65404;DHT22;52014;52.088;5.096;2023-04-24T08:51:10;10.50;99.90
65404;DHT22;52014;52.088;5.096;2023-04-24T08:53:35;10.50;99.90
65404;DHT22;52014;52.088;5.096;2023-04-24T08:56:01;10.50;99.90
65404;DHT22;52014;52.088;5.096;2023-04-24T08:58:27;10.40;99.90
65404;DHT22;52014;52.088;5.096;2023-04-24T09:00:56;10.40;99.90
65404;DHT22;52014;52.088;5.096;2023-04-24T09:03:22;10.50;99.90
65404;DHT22;52014;52.088;5.096;2023-04-24T09:05:48;10.50;99.90
65404;DHT22;52014;52.088;5.096;2023-04-24T09:08:14;10.50;99.90
65404;DHT22;52014;52.088;5.096;2023-04-24T09:10:41;10.40;99.90
65404;DHT22;52014;52.088;5.096;2023-04-24T09:13:06;10.40;99.90
65404;DHT22;52014;52.088;5.096;2023-04-24T09:15:34;10.50;99.90
65404;DHT22;52014;52.088;5.096;2023-04-24T09:18:00;10.60;99.90
65404;DHT22;52014;52.088;5.096;2023-04-24T09:20:26;10.50;99.90
65404;DHT22;52014;52.088;5.096;2023-04-24T09:22:53;10.60;99.90
65404;DHT22;52014;52.088;5.096;2023-04-24T09:25:18;10.70;99.90
65404;DHT22;52014;52.088;5.096;2023-04-24T09:27:44;10.60;99.90
65404;DHT22;52014;52.088;5.096;2023-04-24T09:30:10;10.90;99.90
65404;DHT22;52014;52.088;5.096;2023-04-24T09:32:36;10.80;99.90
65404;DHT22;52014;52.088;5.096;2023-04-24T09:35:11;10.80;99.90
65404;DHT22;52014;52.088;5.096;2023-04-24T09:40:13;10.70;99.90
65404;DHT22;52014;52.088;5.096;2023-04-24T09:42:39;10.80;99.90
65404;DHT22;52014;52.088;5.096;2023-04-24T09:45:08;10.90;99.90
65404;DHT22;52014;52.088;5.096;2023-04-24T09:47:40;10.90;99.90
65404;DHT22;52014;52.088;5.096;2023-04-24T09:50:15;10.80;99.90
65404;DHT22;52014;52.088;5.096;2023-04-24T09:52:45;10.60;99.90
65404;DHT22;52014;52.088;5.096;2023-04-24T09:55:11;10.70;99.90
65404;DHT22;52014;52.088;5.096;2023-04-24T09:57:46;10.60;99.90
65404;DHT22;52014;52.088;5.096;2023-04-24T10:00:12;10.70;99.90
65404;DHT22;52014;52.088;5.096;2023-04-24T10:02:37;10.50;99.90
65404;DHT22;52014;52.088;5.096;2023-04-24T10:05:03;10.50;99.90
65404;DHT22;52014;52.088;5.096;2023-04-24T10:07:28;10.40;99.90
65404;DHT22;52014;52.088;5.096;2023-04-24T10:09:54;10.30;99.90
65404;DHT22;52014;52.088;5.096;2023-04-24T10:12:19;10.30;99.90
65404;DHT22;52014;52.088;5.096;2023-04-24T10:14:46;10.30;99.90
65404;DHT22;52014;52.088;5.096;2023-04-24T10:17:11;10.30;99.90
65404;DHT22;52014;52.088;5.096;2023-04-24T10:19:37;10.60;99.90
65404;DHT22;52014;52.088;5.096;2023-04-24T10:22:03;10.60;99.90
65404;DHT22;52014;52.088;5.096;2023-04-24T10:24:29;10.70;99.90
65404;DHT22;52014;52.088;5.096;2023-04-24T10:26:55;10.70;99.90
65404;DHT22;52014;52.088;5.096;2023-04-24T10:29:22;10.70;99.90
65404;DHT22;52014;52.088;5.096;2023-04-24T10:31:48;10.60;99.90
65404;DHT22;52014;52.088;5.096;2023-04-24T10:34:14;10.80;99.90
65404;DHT22;52014;52.088;5.096;2023-04-24T10:36:50;10.80;99.90
65404;DHT22;52014;52.088;5.096;2023-04-24T10:39:16;11.00;99.90
65404;DHT22;52014;52.088;5.096;2023-04-24T10:41:43;11.10;99.90
65404;DHT22;52014;52.088;5.096;2023-04-24T10:44:11;11.20;99.90
65404;DHT22;52014;52.088;5.096;2023-04-24T10:46:37;11.10;99.90
65404;DHT22;52014;52.088;5.096;2023-04-24T10:49:06;11.40;99.90
65404;DHT22;52014;52.088;5.096;2023-04-24T10:51:45;11.70;99.90
65404;DHT22;52014;52.088;5.096;2023-04-24T10:59:51;11.70;99.90
65404;DHT22;52014;52.088;5.096;2023-04-24T11:02:17;11.50;99.90
65404;DHT22;52014;52.088;5.096;2023-04-24T11:04:43;11.10;99.90
65404;DHT22;52014;52.088;5.096;2023-04-24T11:07:09;11.10;99.90
65404;DHT22;52014;52.088;5.096;2023-04-24T11:09:35;11.00;99.90
65404;DHT22;52014;52.088;5.096;2023-04-24T11:12:08;11.10;99.90
65404;DHT22;52014;52.088;5.096;2023-04-24T11:17:32;10.80;99.90
65404;DHT22;52014;52.088;5.096;2023-04-24T11:20:02;10.80;99.90
65404;DHT22;52014;52.088;5.096;2023-04-24T11:22:29;10.80;99.90
65404;DHT22;52014;52.088;5.096;2023-04-24T11:24:58;10.60;99.90
65404;DHT22;52014;52.088;5.096;2023-04-24T11:27:28;10.60;99.90
65404;DHT22;52014;52.088;5.096;2023-04-24T11:34:59;10.90;99.90
65404;DHT22;52014;52.088;5.096;2023-04-24T11:37:27;11.10;99.90
65404;DHT22;52014;52.088;5.096;2023-04-24T11:39:53;11.30;99.90
65404;DHT22;52014;52.088;5.096;2023-04-24T11:42:19;11.50;99.90
65404;DHT22;52014;52.088;5.096;2023-04-24T11:44:45;11.40;99.90
65404;DHT22;52014;52.088;5.096;2023-04-24T11:47:12;11.30;99.90
65404;DHT22;52014;52.088;5.096;2023-04-24T11:49:38;11.30;99.90
65404;DHT22;52014;52.088;5.096;2023-04-24T11:52:03;11.40;99.90
65404;DHT22;52014;52.088;5.096;2023-04-24T11:54:29;11.50;99.90
65404;DHT22;52014;52.088;5.096;2023-04-24T11:56:55;11.40;99.90
65404;DHT22;52014;52.088;5.096;2023-04-24T11:59:21;11.50;99.90
65404;DHT22;52014;52.088;5.096;2023-04-24T12:01:47;11.50;99.90
65404;DHT22;52014;52.088;5.096;2023-04-24T12:04:13;11.50;99.90
65404;DHT22;52014;52.088;5.096;2023-04-24T12:06:39;11.60;99.90
65404;DHT22;52014;52.088;5.096;2023-04-24T12:09:05;11.60;99.90
65404;DHT22;52014;52.088;5.096;2023-04-24T12:11:30;11.60;99.90
65404;DHT22;52014;52.088;5.096;2023-04-24T12:13:56;11.80;99.90
65404;DHT22;52014;52.088;5.096;2023-04-24T12:16:21;11.90;99.90
65404;DHT22;52014;52.088;5.096;2023-04-24T12:18:47;11.90;99.90
65404;DHT22;52014;52.088;5.096;2023-04-24T12:21:16;11.80;99.90
65404;DHT22;52014;52.088;5.096;2023-04-24T12:23:44;11.80;99.90
65404;DHT22;52014;52.088;5.096;2023-04-24T12:26:11;11.80;99.90
65404;DHT22;52014;52.088;5.096;2023-04-24T12:28:37;11.60;99.90
65404;DHT22;52014;52.088;5.096;2023-04-24T12:31:02;11.60;99.90
65404;DHT22;52014;52.088;5.096;2023-04-24T12:33:31;11.60;99.90
65404;DHT22;52014;52.088;5.096;2023-04-24T12:35:57;11.50;99.90
65404;DHT22;52014;52.088;5.096;2023-04-24T12:38:24;11.40;99.90
65404;DHT22;52014;52.088;5.096;2023-04-24T12:41:01;11.20;99.90
65404;DHT22;52014;52.088;5.096;2023-04-24T12:43:26;11.10;99.90
65404;DHT22;52014;52.088;5.096;2023-04-24T12:45:52;11.20;99.90
65404;DHT22;52014;52.088;5.096;2023-04-24T12:48:17;11.10;99.90
65404;DHT22;52014;52.088;5.096;2023-04-24T12:50:43;11.10;99.90
65404;DHT22;52014;52.088;5.096;2023-04-24T12:53:08;11.20;99.90
65404;DHT22;52014;52.088;5.096;2023-04-24T12:55:34;11.10;99.90
65404;DHT22;52014;52.088;5.096;2023-04-24T12:58:00;10.90;99.90
65404;DHT22;52014;52.088;5.096;2023-04-24T13:00:27;10.90;99.90
65404;DHT22;52014;52.088;5.096;2023-04-24T13:02:52;10.80;99.90
65404;DHT22;52014;52.088;5.096;2023-04-24T13:05:18;11.00;99.90
65404;DHT22;52014;52.088;5.096;2023-04-24T13:07:43;11.10;99.90
65404;DHT22;52014;52.088;5.096;2023-04-24T13:10:09;11.20;99.90
65404;DHT22;52014;52.088;5.096;2023-04-24T13:12:34;11.30;99.90
65404;DHT22;52014;52.088;5.096;2023-04-24T13:15:00;11.50;99.90
65404;DHT22;52014;52.088;5.096;2023-04-24T13:17:25;11.70;99.90
65404;DHT22;52014;52.088;5.096;2023-04-24T13:19:51;11.70;99.90
65404;DHT22;52014;52.088;5.096;2023-04-24T13:22:17;11.60;99.90
65404;DHT22;52014;52.088;5.096;2023-04-24T13:24:43;11.40;99.90
65404;DHT22;52014;52.088;5.096;2023-04-24T13:27:09;11.30;99.90
65404;DHT22;52014;52.088;5.096;2023-04-24T13:29:35;11.40;99.90
65404;DHT22;52014;52.088;5.096;2023-04-24T13:32:00;11.50;99.90
65404;DHT22;52014;52.088;5.096;2023-04-24T13:34:26;11.60;99.90
65404;DHT22;52014;52.088;5.096;2023-04-24T13:36:52;11.70;99.90
65404;DHT22;52014;52.088;5.096;2023-04-24T13:39:18;11.90;99.90
65404;DHT22;52014;52.088;5.096;2023-04-24T13:41:43;11.90;99.90
65404;DHT22;52014;52.088;5.096;2023-04-24T13:44:09;11.90;99.90
65404;DHT22;52014;52.088;5.096;2023-04-24T13:46:35;11.70;99.90
65404;DHT22;52014;52.088;5.096;2023-04-24T13:49:01;11.60;99.90
65404;DHT22;52014;52.088;5.096;2023-04-24T13:51:27;11.50;99.90
65404;DHT22;52014;52.088;5.096;2023-04-24T13:53:53;11.50;99.90
65404;DHT22;52014;52.088;5.096;2023-04-24T13:56:18;11.50;99.90
65404;DHT22;52014;52.088;5.096;2023-04-24T13:58:44;11.60;99.90
65404;DHT22;52014;52.088;5.096;2023-04-24T14:01:09;11.70;99.90
65404;DHT22;52014;52.088;5.096;2023-04-24T14:03:36;11.70;99.90
65404;DHT22;52014;52.088;5.096;2023-04-24T14:06:02;11.60;99.90
65404;DHT22;52014;52.088;5.096;2023-04-24T14:08:27;11.60;99.90
65404;DHT22;52014;52.088;5.096;2023-04-24T14:10:53;11.50;99.90
65404;DHT22;52014;52.088;5.096;2023-04-24T14:13:18;11.50;99.90
65404;DHT22;52014;52.088;5.096;2023-04-24T14:15:44;11.40;99.90
65404;DHT22;52014;52.088;5.096;2023-04-24T14:18:10;11.40;99.90
65404;DHT22;52014;52.088;5.096;2023-04-24T14:20:35;11.30;99.90
65404;DHT22;52014;52.088;5.096;2023-04-24T14:23:01;11.30;99.90
65404;DHT22;52014;52.088;5.096;2023-04-24T14:25:26;11.30;99.90
65404;DHT22;52014;52.088;5.096;2023-04-24T14:27:52;11.30;99.90
65404;DHT22;52014;52.088;5.096;2023-04-24T14:30:18;11.30;99.90
65404;DHT22;52014;52.088;5.096;2023-04-24T14:32:43;11.40;99.90
65404;DHT22;52014;52.088;5.096;2023-04-24T14:35:09;11.30;99.90
65404;DHT22;52014;52.088;5.096;2023-04-24T14:37:34;11.40;99.90
65404;DHT22;52014;52.088;5.096;2023-04-24T14:40:00;11.40;99.90
65404;DHT22;52014;52.088;5.096;2023-04-24T14:42:26;11.30;99.90
65404;DHT22;52014;52.088;5.096;2023-04-24T14:44:54;11.30;99.90
65404;DHT22;52014;52.088;5.096;2023-04-24T14:47:19;11.40;99.90
65404;DHT22;52014;52.088;5.096;2023-04-24T14:49:47;11.40;99.90
65404;DHT22;52014;52.088;5.096;2023-04-24T14:52:12;11.40;99.90
65404;DHT22;52014;52.088;5.096;2023-04-24T14:54:38;11.30;99.90
65404;DHT22;52014;52.088;5.096;2023-04-24T14:57:03;11.40;99.90
65404;DHT22;52014;52.088;5.096;2023-04-24T14:59:29;11.50;99.90
65404;DHT22;52014;52.088;5.096;2023-04-24T15:01:54;11.40;99.90
65404;DHT22;52014;52.088;5.096;2023-04-24T15:04:26;11.40;99.90
65404;DHT22;52014;52.088;5.096;2023-04-24T15:06:52;11.40;99.90
65404;DHT22;52014;52.088;5.096;2023-04-24T15:09:19;11.50;99.90
65404;DHT22;52014;52.088;5.096;2023-04-24T15:11:44;11.50;99.90
65404;DHT22;52014;52.088;5.096;2023-04-24T15:14:10;11.50;99.90
65404;DHT22;52014;52.088;5.096;2023-04-24T15:16:36;11.30;99.90
65404;DHT22;52014;52.088;5.096;2023-04-24T15:19:01;11.30;99.90
65404;DHT22;52014;52.088;5.096;2023-04-24T15:21:27;11.30;99.90
65404;DHT22;52014;52.088;5.096;2023-04-24T15:23:52;11.30;99.90
65404;DHT22;52014;52.088;5.096;2023-04-24T15:26:18;11.40;99.90
65404;DHT22;52014;52.088;5.096;2023-04-24T15:28:43;11.30;99.90
65404;DHT22;52014;52.088;5.096;2023-04-24T15:31:09;11.20;99.90
65404;DHT22;52014;52.088;5.096;2023-04-24T15:33:34;11.20;99.90
65404;DHT22;52014;52.088;5.096;2023-04-24T15:36:00;11.10;99.90
65404;DHT22;52014;52.088;5.096;2023-04-24T15:38:25;11.10;99.90